In Rescue
 
Open Full Screen Window  High Contrast Mode
Wind Gusting 00 knots
04
March 31, 2020 4:48 PM EDT
Weather Information
Wind Direction
  020 °
Wind Speed
  04 kt (5 mph)
Wind Gust
  00 kt (0 mph)
Altimeter
29.87 in
Visibility
10 SM
Temperature
07° C
45° F
Dewpoint
01° C
34° F
Humidity
66%
1hr Rain Fall
00.00 in.
24hr Rain Fall
00.09 in.
Sky Condition
Overcast @ 3,400 ft
Broken @ 2,800 ft
MVFR

METAR KPOV 312048Z AUTO 02004KT 10SM BKN028 OVC034 07/01 A2987 RMK AO2 T00690008 PWINO

FAA Disclaimer: The data displayed is for advisory purposes only and is not to be used for flight planning or operations.